Time;durP1;ratioP1;P1;durP2;ratioP2;P2;SDS_P1;SDS_P2;PMS_P1;PMS_P2;Temp;Humidity;BMP_temperature;BMP_pressure;BME280_temperature;BME280_humidity;BME280_pressure;Samples;Min_cycle;Max_cycle;Signal;HPM_P1;HPM_P2
2021/04/19 00:00:08;;;;;;;2.67;1.40;;;;;;;5.87;49.78;102354.41;5084525;28;20714;-74
2021/04/19 00:02:35;;;;;;;1.50;1.23;;;;;;;5.85;49.74;102352.69;5083343;28;20194;-74
2021/04/19 00:05:04;;;;;;;1.87;1.30;;;;;;;5.69;50.12;102329.94;5087528;28;20255;-74
2021/04/19 00:07:32;;;;;;;6.60;1.30;;;;;;;5.74;50.04;102336.06;5079730;28;20210;-74
2021/04/19 00:10:00;;;;;;;1.73;1.50;;;;;;;5.86;49.81;102352.66;5086487;28;20227;-74
2021/04/19 00:12:27;;;;;;;1.60;1.50;;;;;;;5.83;49.71;102354.53;5092914;28;20198;-74
2021/04/19 00:14:55;;;;;;;3.87;1.60;;;;;;;5.80;49.05;102342.13;5081536;28;20284;-74
2021/04/19 00:17:22;;;;;;;2.43;1.70;;;;;;;5.73;49.64;102327.19;5082794;28;20205;-74
2021/04/19 00:19:49;;;;;;;2.43;1.50;;;;;;;5.87;49.33;102341.09;5077665;28;20561;-74
2021/04/19 00:22:16;;;;;;;2.87;1.67;;;;;;;5.66;49.40;102306.03;5092047;28;20214;-74
2021/04/19 00:24:44;;;;;;;3.43;1.90;;;;;;;5.89;48.78;102341.97;5090252;28;20610;-70
2021/04/19 00:27:12;;;;;;;2.87;1.53;;;;;;;5.89;49.04;102346.38;5090372;28;20713;-70
2021/04/19 00:29:39;;;;;;;3.20;1.50;;;;;;;5.89;49.01;102341.06;5087120;28;20206;-74
2021/04/19 00:32:07;;;;;;;1.80;1.10;;;;;;;5.91;49.06;102347.25;5083560;28;20221;-74
2021/04/19 00:34:34;;;;;;;3.93;1.30;;;;;;;5.88;48.77;102337.50;5087882;28;20380;-73
2021/04/19 00:37:01;;;;;;;4.53;1.73;;;;;;;5.93;48.68;102347.22;5086909;28;20669;-73
2021/04/19 00:39:30;;;;;;;5.73;1.53;;;;;;;5.94;49.06;102349.84;5088065;28;20284;-74
2021/04/19 00:41:58;;;;;;;1.57;1.20;;;;;;;5.96;48.92;102347.16;5088491;28;20758;-74
2021/04/19 00:44:26;;;;;;;2.47;1.40;;;;;;;5.96;48.41;102347.16;5070361;28;20303;-73
2021/04/19 00:46:53;;;;;;;3.87;0.90;;;;;;;5.95;48.72;102343.59;5078256;28;20211;-70
2021/04/19 00:49:23;;;;;;;12.50;8.37;;;;;;;5.63;48.63;102285.66;5079697;28;20205;-74
2021/04/19 00:51:52;;;;;;;14.83;9.97;;;;;;;5.96;48.39;102334.69;5076922;28;20202;-74
2021/04/19 00:54:20;;;;;;;2.10;1.67;;;;;;;5.97;48.47;102338.25;5085013;28;20230;-74
2021/04/19 00:56:48;;;;;;;3.83;1.40;;;;;;;5.96;49.23;102331.16;5084536;28;20198;-74
2021/04/19 00:59:15;;;;;;;4.13;1.30;;;;;;;5.95;49.30;102340.06;5085853;28;20244;-74
2021/04/19 01:01:45;;;;;;;1.43;1.27;;;;;;;5.94;49.69;102338.31;5079936;28;20218;-70
2021/04/19 01:04:13;;;;;;;3.17;1.10;;;;;;;5.96;49.55;102341.81;5084596;28;20206;-70
2021/04/19 01:06:41;;;;;;;1.70;1.37;;;;;;;5.58;49.54;102274.22;5077949;28;20233;-69
2021/04/19 01:09:10;;;;;;;2.70;1.30;;;;;;;5.99;49.56;102344.41;5077483;28;20757;-69
2021/04/19 01:11:38;;;;;;;7.20;1.27;;;;;;;5.91;49.34;102337.47;5080601;28;20196;-69
2021/04/19 01:14:07;;;;;;;2.53;1.10;;;;;;;5.98;49.17;102348.88;5082431;28;20697;-69
2021/04/19 01:16:34;;;;;;;2.03;1.43;;;;;;;5.91;49.18;102334.81;5075268;28;20582;-69
2021/04/19 01:19:03;;;;;;;1.43;0.97;;;;;;;5.96;49.85;102355.16;5081384;28;20255;-70
2021/04/19 01:21:32;;;;;;;1.70;1.20;;;;;;;5.96;49.56;102352.47;5085556;28;20304;-69
2021/04/19 01:24:00;;;;;;;4.83;1.20;;;;;;;5.74;49.90;102320.94;5087856;28;20197;-69
2021/04/19 01:26:29;;;;;;;1.20;1.10;;;;;;;5.91;49.47;102348.13;5071133;28;20205;-69
2021/04/19 01:28:58;;;;;;;1.97;1.10;;;;;;;5.91;49.97;102348.13;5086505;28;20210;-70
2021/04/19 01:31:29;;;;;;;4.40;1.10;;;;;;;5.82;49.68;102337.66;5084607;28;20197;-69
2021/04/19 01:34:03;;;;;;;1.13;1.03;;;;;;;5.56;49.94;102297.38;5076672;28;20210;-69
2021/04/19 01:36:33;;;;;;;1.47;1.00;;;;;;;5.81;50.02;102348.31;5117976;27;20274;-69
2021/04/19 01:39:00;;;;;;;2.17;0.80;;;;;;;5.79;51.16;102344.81;5087087;28;20205;-69
2021/04/19 01:41:29;;;;;;;2.30;0.90;;;;;;;5.76;50.69;102339.56;5087174;28;20217;-69
2021/04/19 01:43:57;;;;;;;2.80;0.80;;;;;;;5.75;50.76;102341.34;5078694;28;20198;-69
2021/04/19 01:46:26;;;;;;;3.03;1.10;;;;;;;5.76;50.54;102344.88;5068105;28;20202;-69
2021/04/19 01:48:59;;;;;;;2.57;1.13;;;;;;;5.75;50.92;102338.69;5081188;28;20201;-70
2021/04/19 01:51:27;;;;;;;0.80;0.80;;;;;;;5.70;51.28;102340.56;5068995;28;20630;-69
2021/04/19 01:53:56;;;;;;;1.80;0.90;;;;;;;5.71;51.37;102337.00;5074337;28;20695;-70
2021/04/19 01:56:24;;;;;;;1.03;0.80;;;;;;;5.67;51.50;102337.09;5086434;28;20264;-70
2021/04/19 01:58:52;;;;;;;1.00;1.00;;;;;;;5.67;50.63;102329.97;5083199;28;20209;-70
2021/04/19 02:01:20;;;;;;;1.93;1.03;;;;;;;5.64;51.22;102335.38;5074161;28;20260;-70
2021/04/19 02:03:55;;;;;;;1.97;0.97;;;;;;;5.22;51.11;102268.81;5068273;28;20229;-70
2021/04/19 02:06:35;;;;;;;2.83;1.07;;;;;;;5.61;50.80;102330.13;5080770;28;20204;-69
2021/04/19 02:09:12;;;;;;;3.77;0.90;;;;;;;5.60;50.80;102331.03;5070263;28;20202;-70
2021/04/19 02:11:57;;;;;;;1.07;0.87;;;;;;;5.53;51.00;102324.09;5078738;28;20647;-69
2021/04/19 02:14:35;;;;;;;1.63;1.13;;;;;;;5.36;50.92;102303.13;5070780;28;20204;-74
2021/04/19 02:17:10;;;;;;;1.33;0.87;;;;;;;5.52;50.68;102325.00;5088133;28;20205;-74
2021/04/19 02:19:42;;;;;;;1.90;0.90;;;;;;;5.56;51.03;102332.88;5086042;28;20223;-74
2021/04/19 02:22:15;;;;;;;0.80;0.73;;;;;;;5.53;51.04;102332.09;5079424;28;20695;-74
2021/04/19 02:24:47;;;;;;;6.03;1.00;;;;;;;5.23;50.74;102286.53;5071478;28;20278;-74
2021/04/19 02:27:21;;;;;;;1.23;1.10;;;;;;;5.49;50.79;102331.25;5069919;28;20213;-69
2021/04/19 02:29:59;;;;;;;1.63;0.83;;;;;;;5.44;50.80;102327.81;5079957;28;20649;-69
2021/04/19 02:32:33;;;;;;;1.90;1.03;;;;;;;4.97;51.47;102257.78;5078875;28;20197;-69
2021/04/19 02:35:07;;;;;;;1.47;0.90;;;;;;;5.39;51.19;102329.69;5080215;28;20207;-69
2021/04/19 02:37:38;;;;;;;1.90;0.97;;;;;;;5.20;51.67;102307.00;5078518;28;20709;-69
2021/04/19 02:40:11;;;;;;;4.10;1.27;;;;;;;5.26;51.83;102334.41;5074447;28;20196;-74
2021/04/19 02:42:40;;;;;;;3.17;1.70;;;;;;;5.24;51.60;102324.69;5088005;28;20220;-74
2021/04/19 02:45:11;;;;;;;5.70;4.23;;;;;;;5.08;53.28;102329.44;5074946;28;20220;-74
2021/04/19 02:47:55;;;;;;;1.90;0.90;;;;;;;4.99;52.63;102314.50;5082863;28;20206;-73
2021/04/19 02:50:39;;;;;;;3.60;1.93;;;;;;;5.13;53.74;102326.66;5087790;28;20201;-69
2021/04/19 02:53:08;;;;;;;1.37;1.10;;;;;;;5.21;52.55;102328.28;5074760;28;20205;-74
2021/04/19 02:55:37;;;;;;;1.67;1.27;;;;;;;5.24;53.19;102322.91;5089292;28;20217;-70
2021/04/19 02:58:07;;;;;;;2.87;1.00;;;;;;;5.33;52.74;102326.28;5084503;28;20583;-72
2021/04/19 03:00:44;;;;;;;1.13;1.03;;;;;;;5.39;52.38;102326.16;5073937;28;20220;-75
2021/04/19 03:03:19;;;;;;;2.00;1.07;;;;;;;5.43;52.04;102325.16;5071479;28;20620;-72
2021/04/19 03:05:48;;;;;;;2.73;1.20;;;;;;;5.45;52.16;102326.00;5113258;27;20603;-75
2021/04/19 03:08:19;;;;;;;0.97;0.90;;;;;;;5.48;51.66;102325.94;5089163;28;20277;-73
2021/04/19 03:10:55;;;;;;;1.73;0.93;;;;;;;5.44;52.14;102327.81;5083320;28;20895;-72
2021/04/19 03:13:25;;;;;;;2.00;1.17;;;;;;;5.39;51.92;102326.16;5088853;28;20229;-71
2021/04/19 03:15:58;;;;;;;1.80;1.00;;;;;;;5.37;52.28;102331.50;5081927;28;20203;-73
2021/04/19 03:18:31;;;;;;;0.70;0.70;;;;;;;5.35;52.62;102330.66;5085095;28;20193;-73
2021/04/19 03:21:14;;;;;;;0.73;0.73;;;;;;;5.33;52.43;102335.16;5113219;27;20216;-73
2021/04/19 03:24:06;;;;;;;1.50;0.80;;;;;;;5.27;52.45;102328.16;5081814;28;20582;-72
2021/04/19 03:26:53;;;;;;;1.03;0.80;;;;;;;5.28;52.37;102327.25;5085705;28;20323;-72
2021/04/19 03:29:25;;;;;;;1.33;1.00;;;;;;;5.23;52.53;102328.25;5080633;28;20201;-73
2021/04/19 03:32:11;;;;;;;0.60;0.60;;;;;;;5.16;52.82;102316.81;5089879;28;20614;-73
2021/04/19 03:34:46;;;;;;;2.37;1.13;;;;;;;5.18;52.85;102322.13;5089757;28;20213;-73
2021/04/19 03:37:19;;;;;;;1.43;0.80;;;;;;;5.21;52.49;102320.31;5086630;28;20201;-73
2021/04/19 03:39:53;;;;;;;2.87;0.87;;;;;;;5.23;52.65;102322.94;5089398;28;20299;-73
2021/04/19 03:42:26;;;;;;;0.70;0.70;;;;;;;5.20;53.26;102320.31;5091387;28;20619;-73
2021/04/19 03:44:56;;;;;;;1.33;1.03;;;;;;;5.17;52.69;102321.25;5076371;28;20650;-73
2021/04/19 03:47:44;;;;;;;1.63;1.07;;;;;;;5.14;53.53;102318.66;5092635;28;20197;-73
2021/04/19 03:50:27;;;;;;;2.70;0.90;;;;;;;5.07;53.65;102316.16;5080746;28;20568;-73
2021/04/19 03:52:59;;;;;;;4.10;1.23;;;;;;;5.14;54.09;102318.66;5079396;28;20280;-73
2021/04/19 03:55:28;;;;;;;1.10;0.83;;;;;;;4.63;54.56;102265.53;5078051;28;20202;-74
2021/04/19 03:57:58;;;;;;;5.50;0.87;;;;;;;4.92;54.99;102315.53;5083133;28;20255;-73
2021/04/19 04:00:35;;;;;;;2.07;1.03;;;;;;;4.93;55.93;102317.31;5077358;28;20201;-74
2021/04/19 04:03:22;;;;;;;0.67;0.60;;;;;;;4.99;55.98;102318.97;5075745;28;20335;-71
2021/04/19 04:06:27;;;;;;;1.60;0.80;;;;;;;5.07;55.72;102316.16;5062744;28;20272;-71
2021/04/19 04:08:58;;;;;;;1.20;1.10;;;;;;;5.10;56.24;102311.63;5079183;28;20385;-72
2021/04/19 04:11:27;;;;;;;1.47;0.90;;;;;;;5.12;56.46;102323.13;5094339;28;20333;-73
2021/04/19 04:14:10;;;;;;;1.20;0.87;;;;;;;5.20;56.20;102315.88;5077881;28;20206;-72
2021/04/19 04:16:40;;;;;;;2.20;1.10;;;;;;;5.26;56.10;102313.09;5091994;28;20201;-72
2021/04/19 04:19:10;;;;;;;1.63;0.70;;;;;;;5.33;56.22;102323.63;5073075;28;20202;-73
2021/04/19 04:21:58;;;;;;;1.77;0.83;;;;;;;5.37;56.44;102325.31;5075251;28;20716;-72
2021/04/19 04:24:35;;;;;;;1.20;0.90;;;;;;;5.46;56.03;102325.09;5081703;28;20620;-73
2021/04/19 04:27:02;;;;;;;1.27;1.10;;;;;;;5.46;55.91;102309.13;5076356;28;20198;-72
2021/04/19 04:29:30;;;;;;;0.70;0.70;;;;;;;5.70;56.09;102334.38;5112825;27;20741;-72
2021/04/19 04:32:14;;;;;;;1.80;0.90;;;;;;;5.71;55.61;102321.00;5074885;28;20203;-70
2021/04/19 04:34:43;;;;;;;2.17;0.90;;;;;;;5.89;55.51;102325.06;5076694;28;20645;-70
2021/04/19 04:37:11;;;;;;;0.70;0.70;;;;;;;5.99;54.73;102331.06;5073380;28;20206;-71
2021/04/19 04:39:50;;;;;;;4.17;1.00;;;;;;;6.14;54.45;102336.06;5074147;28;20258;-69
2021/04/19 04:42:20;;;;;;;5.23;1.00;;;;;;;6.23;54.67;102320.72;5073998;28;20233;-71
2021/04/19 04:44:51;;;;;;;3.27;1.00;;;;;;;6.41;54.52;102324.69;5078055;28;20219;-70
2021/04/19 04:47:29;;;;;;;6.33;1.10;;;;;;;6.63;54.33;102330.38;5073192;28;20209;-70
2021/04/19 04:50:06;;;;;;;0.77;0.70;;;;;;;6.70;53.47;102328.41;5078540;28;20213;-71
2021/04/19 04:52:38;;;;;;;1.10;0.97;;;;;;;6.85;53.25;102325.38;5078476;28;20296;-71
2021/04/19 04:55:08;;;;;;;2.47;1.10;;;;;;;6.89;53.04;102327.03;5069315;28;20293;-69
2021/04/19 04:57:37;;;;;;;1.10;0.70;;;;;;;6.94;53.28;102319.75;5075562;28;20570;-69
2021/04/19 05:00:07;;;;;;;3.03;1.23;;;;;;;7.03;53.30;102318.63;5072441;28;20658;-68
2021/04/19 05:02:36;;;;;;;1.50;0.80;;;;;;;7.12;53.11;102316.59;5072705;28;20229;-68
2021/04/19 05:05:04;;;;;;;1.20;1.10;;;;;;;7.23;52.06;102318.97;5075591;28;20561;-68
2021/04/19 05:07:33;;;;;;;1.33;0.90;;;;;;;7.31;52.13;102322.28;5080554;28;20222;-71
2021/04/19 05:10:01;;;;;;;1.23;0.83;;;;;;;7.49;51.95;102326.22;5085900;28;20745;-72
2021/04/19 05:12:28;;;;;;;1.30;0.70;;;;;;;7.49;51.84;102331.56;5079568;28;20202;-69
2021/04/19 05:14:59;;;;;;;5.70;1.33;;;;;;;7.50;51.51;102309.25;5076977;28;20201;-71
2021/04/19 05:17:28;;;;;;;4.67;1.00;;;;;;;7.72;51.71;102329.09;5082488;28;20684;-71
2021/04/19 05:19:55;;;;;;;1.00;0.90;;;;;;;7.90;51.35;102326.75;5080574;28;20290;-72
2021/04/19 05:22:23;;;;;;;5.23;1.13;;;;;;;7.75;50.13;102304.94;5080246;28;20228;-69
2021/04/19 05:24:51;;;;;;;0.53;0.53;;;;;;;7.98;51.26;102328.28;5069916;28;20222;-69
2021/04/19 05:27:18;;;;;;;157.53;82.10;;;;;;;8.03;51.10;102330.81;5067334;28;20214;-69
2021/04/19 05:29:46;;;;;;;3.07;1.40;;;;;;;8.23;50.99;102331.03;5072725;28;20701;-68
2021/04/19 05:32:15;;;;;;;1.73;1.23;;;;;;;8.36;51.10;102335.13;5071844;28;20195;-69
2021/04/19 05:34:43;;;;;;;4.43;1.10;;;;;;;8.48;49.83;102338.31;5074071;28;20677;-68
2021/04/19 05:37:11;;;;;;;2.90;1.00;;;;;;;8.63;49.25;102324.41;5079893;28;20754;-72
2021/04/19 05:39:39;;;;;;;1.43;0.90;;;;;;;8.75;48.84;102336.50;5072504;28;20763;-69
2021/04/19 05:42:09;;;;;;;1.73;0.97;;;;;;;8.72;48.91;102308.03;5074061;28;20209;-69
2021/04/19 05:44:38;;;;;;;5.13;1.23;;;;;;;9.03;48.11;102337.28;5068473;28;20215;-69
2021/04/19 05:47:06;;;;;;;4.30;1.30;;;;;;;9.10;47.93;102338.81;5076447;28;20197;-69
2021/04/19 05:49:34;;;;;;;1.83;0.90;;;;;;;9.23;48.28;102324.06;5079171;28;20954;-72
2021/04/19 05:52:05;;;;;;;1.20;1.10;;;;;;;9.49;48.12;102339.19;5080158;28;20195;-71
2021/04/19 05:54:35;;;;;;;2.27;1.17;;;;;;;9.72;47.82;102337.41;5082109;28;20579;-70
2021/04/19 05:57:23;;;;;;;5.03;1.20;;;;;;;9.80;47.04;102332.63;5074977;28;20193;-70
2021/04/19 06:00:00;;;;;;;2.10;1.00;;;;;;;9.77;46.37;102322.88;5073468;28;20273;-70
2021/04/19 06:02:39;;;;;;;2.10;0.80;;;;;;;10.03;46.39;102337.94;5070531;28;20226;-71
2021/04/19 06:05:15;;;;;;;1.67;1.40;;;;;;;10.23;45.92;102335.38;5082686;28;20657;-71
2021/04/19 06:07:47;;;;;;;2.40;1.30;;;;;;;10.27;45.08;102334.31;5073001;28;20471;-73
2021/04/19 06:10:49;;;;;;;1.00;1.00;;;;;;;10.38;44.95;102339.25;5078224;28;20310;-70
2021/04/19 06:13:28;;;;;;;3.27;1.13;;;;;;;10.38;44.62;102341.03;5078543;28;20201;-70
2021/04/19 06:16:00;;;;;;;1.27;0.93;;;;;;;10.44;44.65;102343.50;5072627;28;20205;-70
2021/04/19 06:18:29;;;;;;;2.73;1.10;;;;;;;10.58;45.33;102333.03;5085361;28;20695;-71
2021/04/19 06:20:58;;;;;;;1.70;1.23;;;;;;;10.82;45.36;102329.31;5088787;28;20210;-71
2021/04/19 06:23:26;;;;;;;0.93;0.83;;;;;;;11.03;45.18;102345.47;5079421;28;20200;-72
2021/04/19 06:25:53;;;;;;;1.40;1.10;;;;;;;10.93;43.16;102338.72;5079820;28;20211;-70
2021/04/19 06:28:24;;;;;;;1.30;1.20;;;;;;;10.96;44.93;102322.44;5081351;28;20189;-71
2021/04/19 06:31:15;;;;;;;2.47;1.07;;;;;;;11.27;43.24;102344.34;5081486;28;20682;-71
2021/04/19 06:34:01;;;;;;;1.70;1.10;;;;;;;11.29;44.68;102353.22;5075966;28;20704;-71
2021/04/19 06:36:30;;;;;;;4.13;1.00;;;;;;;11.31;43.16;102348.66;5071451;28;20198;-70
2021/04/19 06:38:58;;;;;;;2.93;1.03;;;;;;;11.43;43.06;102347.25;5081714;28;20803;-70
2021/04/19 06:41:25;;;;;;;2.90;1.30;;;;;;;11.68;43.75;102349.69;5074744;28;20217;-71
2021/04/19 06:43:55;;;;;;;2.63;1.20;;;;;;;11.90;43.26;102350.44;5082339;28;20255;-71
2021/04/19 06:46:25;;;;;;;5.50;1.00;;;;;;;12.27;43.01;102351.38;5081665;28;20249;-71
2021/04/19 06:48:54;;;;;;;1.17;1.03;;;;;;;12.17;42.01;102301.56;5078991;28;20203;-71
2021/04/19 06:51:21;;;;;;;4.50;1.13;;;;;;;12.67;42.62;102350.25;5084476;28;20587;-71
2021/04/19 06:53:51;;;;;;;2.63;1.20;;;;;;;12.78;41.05;102355.09;5084837;28;20221;-71
2021/04/19 06:56:23;;;;;;;2.53;1.20;;;;;;;12.82;40.14;102348.59;5083544;28;20652;-71
2021/04/19 06:58:52;;;;;;;1.40;1.13;;;;;;;12.72;41.02;102349.06;5080881;28;20571;-71
2021/04/19 07:01:21;;;;;;;1.90;1.20;;;;;;;12.88;41.59;102340.19;5076983;28;20570;-73
2021/04/19 07:03:51;;;;;;;2.00;1.00;;;;;;;13.21;40.66;102348.38;5084114;28;20188;-71
2021/04/19 07:06:21;;;;;;;2.03;1.20;;;;;;;13.41;39.86;102347.31;5088727;28;20227;-71
2021/04/19 07:09:02;;;;;;;1.87;1.03;;;;;;;13.30;39.16;102346.06;5082531;28;20707;-73
2021/04/19 07:11:35;;;;;;;3.30;1.00;;;;;;;13.34;39.16;102331.44;5079709;28;20229;-73
2021/04/19 07:14:03;;;;;;;2.37;1.30;;;;;;;13.60;39.88;102342.66;5080684;28;20730;-71
2021/04/19 07:16:30;;;;;;;2.30;1.37;;;;;;;13.57;39.60;102338.31;5093750;28;20197;-72
2021/04/19 07:18:58;;;;;;;1.20;1.10;;;;;;;13.50;39.62;102317.13;5087435;28;20206;-73
2021/04/19 07:21:26;;;;;;;1.30;1.20;;;;;;;13.76;38.89;102332.75;5093197;28;20215;-73
2021/04/19 07:23:54;;;;;;;1.57;1.30;;;;;;;14.14;39.41;102345.94;5080331;28;20201;-71
2021/04/19 07:26:21;;;;;;;3.00;1.00;;;;;;;13.97;37.56;102336.94;5078792;28;20201;-73
2021/04/19 07:28:49;;;;;;;4.13;1.50;;;;;;;13.80;37.24;102341.56;5092042;28;20264;-72
2021/04/19 07:31:17;;;;;;;2.37;1.00;;;;;;;13.69;37.58;102334.03;5078519;28;20207;-71
2021/04/19 07:33:45;;;;;;;1.27;1.10;;;;;;;13.96;38.28;102340.63;5073510;28;20200;-72
2021/04/19 07:36:23;;;;;;;1.63;0.97;;;;;;;13.87;37.84;102292.53;5089956;28;20200;-73
2021/04/19 07:38:51;;;;;;;2.63;1.30;;;;;;;13.96;36.32;102313.59;5071697;28;20189;-71
2021/04/19 07:41:19;;;;;;;6.53;1.50;;;;;;;14.02;37.37;102339.38;5086471;28;20230;-72
2021/04/19 07:43:49;;;;;;;2.47;1.00;;;;;;;14.38;37.99;102336.41;5087980;28;20212;-72
2021/04/19 07:46:18;;;;;;;1.57;1.00;;;;;;;14.50;36.66;102341.16;5084554;28;20289;-71
2021/04/19 07:48:47;;;;;;;2.77;1.10;;;;;;;14.59;36.02;102340.59;5074272;28;20481;-73
2021/04/19 07:51:29;;;;;;;5.73;1.30;;;;;;;14.40;35.57;102337.22;5074938;28;20209;-71
2021/04/19 07:54:17;;;;;;;5.43;1.33;;;;;;;14.40;35.87;102329.09;5081861;28;20201;-71
2021/04/19 07:57:05;;;;;;;3.00;1.10;;;;;;;14.44;35.53;102341.50;5070043;28;20212;-71
2021/04/19 07:59:34;;;;;;;3.63;1.17;;;;;;;14.78;37.07;102331.41;5072164;28;20229;-72
2021/04/19 08:02:03;;;;;;;3.50;1.20;;;;;;;14.87;35.93;102337.13;5072409;28;20220;-71
2021/04/19 08:04:31;;;;;;;1.73;1.10;;;;;;;14.90;36.54;102328.81;5083588;28;20189;-71
2021/04/19 08:07:00;;;;;;;2.40;1.20;;;;;;;14.86;34.71;102329.09;5084507;28;20295;-72
2021/04/19 08:09:30;;;;;;;1.87;1.10;;;;;;;14.86;34.36;102321.00;5084730;28;20253;-73
2021/04/19 08:12:06;;;;;;;12.17;6.07;;;;;;;15.15;35.06;102322.78;5079331;28;20224;-71
2021/04/19 08:14:34;;;;;;;9.17;5.33;;;;;;;15.29;35.40;102323.75;5074360;28;20216;-71
2021/04/19 08:17:09;;;;;;;4.40;1.67;;;;;;;15.04;34.44;102309.06;5081272;28;20222;-71
2021/04/19 08:19:39;;;;;;;1.73;1.00;;;;;;;14.92;35.08;102320.59;5086407;28;20204;-71
2021/04/19 08:22:15;;;;;;;5.27;1.10;;;;;;;15.05;34.89;102310.81;5085925;28;20269;-71
2021/04/19 08:24:43;;;;;;;2.10;1.17;;;;;;;15.11;35.56;102305.00;5081692;28;20771;-71
2021/04/19 08:27:19;;;;;;;2.27;1.10;;;;;;;15.37;35.62;102299.81;5078115;28;20299;-71
2021/04/19 08:29:47;;;;;;;2.50;1.37;;;;;;;15.58;35.05;102306.59;5076626;28;20291;-71
2021/04/19 08:32:16;;;;;;;2.73;1.27;;;;;;;15.85;34.81;102320.19;5079807;28;20208;-71
2021/04/19 08:34:44;;;;;;;6.97;1.40;;;;;;;16.10;34.42;102300.50;5074910;28;20192;-71
2021/04/19 08:37:12;;;;;;;3.10;1.30;;;;;;;16.12;33.98;102309.41;5089417;28;20199;-71
2021/04/19 08:39:40;;;;;;;1.87;1.00;;;;;;;16.00;33.37;102313.81;5080883;28;20287;-71
2021/04/19 08:42:20;;;;;;;2.33;1.30;;;;;;;15.78;32.61;102279.09;5081957;28;20758;-72
2021/04/19 08:44:52;;;;;;;1.47;1.20;;;;;;;15.95;33.34;102304.25;5076487;28;20208;-73
2021/04/19 08:47:20;;;;;;;1.80;1.20;;;;;;;16.14;33.50;102304.75;5084777;28;20210;-72
2021/04/19 08:49:49;;;;;;;0.93;0.90;;;;;;;16.11;32.54;102272.44;5075992;28;20284;-73
2021/04/19 08:52:16;;;;;;;1.30;1.20;;;;;;;16.14;33.52;102300.19;5074819;28;20505;-71
2021/04/19 08:54:45;;;;;;;2.20;1.10;;;;;;;16.06;32.74;102298.97;5079395;28;20209;-71
2021/04/19 08:57:12;;;;;;;13.03;1.37;;;;;;;16.31;34.17;102301.78;5083740;28;20216;-70
2021/04/19 08:59:43;;;;;;;5.20;1.37;;;;;;;16.08;32.33;102259.09;5082459;28;20205;-70
2021/04/19 09:02:14;;;;;;;1.13;1.07;;;;;;;16.10;32.30;102295.94;5070859;28;20212;-70
2021/04/19 09:04:42;;;;;;;1.70;1.33;;;;;;;16.01;32.44;102302.00;5079069;28;20687;-70
2021/04/19 09:07:09;;;;;;;3.50;1.10;;;;;;;16.07;33.05;102307.00;5076865;28;20231;-71
2021/04/19 09:09:41;;;;;;;5.20;1.20;;;;;;;15.96;32.48;102293.28;5078818;28;20252;-71
2021/04/19 09:12:27;;;;;;;3.50;1.30;;;;;;;16.19;32.97;102286.31;5076809;28;20667;-72
2021/04/19 09:15:14;;;;;;;1.53;1.20;;;;;;;16.30;31.85;102285.63;5086310;28;20231;-71
2021/04/19 09:17:44;;;;;;;2.23;1.37;;;;;;;16.34;33.49;102268.19;5081453;28;20610;-71
2021/04/19 09:20:13;;;;;;;2.63;1.30;;;;;;;16.78;32.66;102278.72;5082366;28;20201;-72
2021/04/19 09:22:41;;;;;;;2.50;1.10;;;;;;;16.75;32.30;102284.38;5079601;28;20299;-71
2021/04/19 09:25:12;;;;;;;1.90;1.10;;;;;;;16.71;33.24;102269.28;5075051;28;20288;-71
2021/04/19 09:27:48;;;;;;;2.00;1.10;;;;;;;16.65;31.84;102232.56;5076772;28;20732;-72
2021/04/19 09:30:35;;;;;;;1.57;1.30;;;;;;;17.13;31.96;102275.38;5075793;28;20197;-71
2021/04/19 09:33:24;;;;;;;1.40;1.00;;;;;;;16.73;31.97;102245.63;5074717;28;20193;-71
2021/04/19 09:35:53;;;;;;;2.17;1.43;;;;;;;16.80;31.49;102227.06;5072821;28;20678;-71
2021/04/19 09:38:49;;;;;;;1.40;1.30;;;;;;;16.86;31.85;102251.06;5071917;28;20205;-71
2021/04/19 09:41:21;;;;;;;2.13;1.40;;;;;;;16.89;30.64;102284.28;5074551;28;20301;-71
2021/04/19 09:43:53;;;;;;;2.03;1.00;;;;;;;17.06;31.23;102264.09;5085319;28;20607;-71
2021/04/19 09:46:29;;;;;;;3.97;2.30;;;;;;;17.47;31.63;102269.31;5080015;28;20201;-72
2021/04/19 09:49:00;;;;;;;2.87;1.13;;;;;;;17.43;30.80;102269.59;5078945;28;20200;-71
2021/04/19 09:51:37;;;;;;;2.07;1.20;;;;;;;17.30;30.83;102239.75;5074899;28;20185;-70
2021/04/19 09:54:08;;;;;;;3.67;1.30;;;;;;;17.47;30.99;102253.00;5070875;28;20257;-72
2021/04/19 09:56:39;;;;;;;2.10;1.17;;;;;;;17.63;31.06;102250.03;5079474;28;20305;-72
2021/04/19 09:59:07;;;;;;;3.23;1.00;;;;;;;17.39;29.71;102248.09;5077494;28;20193;-71
2021/04/19 10:01:36;;;;;;;1.90;1.13;;;;;;;17.76;29.99;102253.63;5077900;28;20629;-71
2021/04/19 10:04:05;;;;;;;3.10;1.90;;;;;;;18.05;30.26;102254.13;5081245;28;20203;-72
2021/04/19 10:06:38;;;;;;;1.50;1.10;;;;;;;18.08;28.96;102248.50;5072228;28;20212;-72
2021/04/19 10:09:09;;;;;;;2.00;1.20;;;;;;;18.01;30.38;102249.91;5074988;28;20331;-72
2021/04/19 10:11:41;;;;;;;31.23;18.40;;;;;;;17.80;29.78;102243.38;5075689;28;20322;-72
2021/04/19 10:14:10;;;;;;;2.97;2.30;;;;;;;17.79;29.02;102231.66;5080636;28;20203;-71
2021/04/19 10:16:42;;;;;;;2.67;1.40;;;;;;;17.68;28.93;102239.72;5075530;28;20361;-71
2021/04/19 10:19:11;;;;;;;1.87;1.20;;;;;;;17.69;29.68;102225.13;5079246;28;20192;-71
2021/04/19 10:21:38;;;;;;;8.00;1.93;;;;;;;17.67;29.98;102217.09;5081896;28;20220;-70
2021/04/19 10:24:14;;;;;;;3.13;1.20;;;;;;;17.57;29.17;102237.75;5081546;28;20487;-71
2021/04/19 10:26:41;;;;;;;3.97;1.07;;;;;;;17.71;29.96;102227.75;5077329;28;20224;-69
2021/04/19 10:29:15;;;;;;;3.37;1.23;;;;;;;17.88;29.55;102246.41;5075791;28;20205;-70
2021/04/19 10:31:51;;;;;;;1.10;1.00;;;;;;;17.60;28.66;102228.50;5076469;28;20204;-69
2021/04/19 10:34:20;;;;;;;1.90;1.07;;;;;;;17.46;28.88;102229.53;5076123;28;20666;-69
2021/04/19 10:36:51;;;;;;;2.30;1.40;;;;;;;17.76;29.13;102231.00;5074856;28;20597;-70
2021/04/19 10:39:21;;;;;;;1.77;0.90;;;;;;;17.86;29.84;102237.50;5076925;28;20193;-70
2021/04/19 10:41:50;;;;;;;6.47;1.03;;;;;;;17.60;29.66;102239.38;5077014;28;20557;-70
2021/04/19 10:44:24;;;;;;;2.23;1.30;;;;;;;17.45;28.92;102243.19;5076530;28;20560;-70
2021/04/19 10:46:55;;;;;;;3.23;1.40;;;;;;;17.39;29.62;102237.25;5075663;28;20201;-69
2021/04/19 10:49:26;;;;;;;2.27;1.23;;;;;;;16.98;28.73;102183.22;5081205;28;20201;-70
2021/04/19 10:51:55;;;;;;;1.13;1.07;;;;;;;17.33;29.58;102229.53;5075964;28;20207;-70
2021/04/19 10:54:27;;;;;;;6.73;1.30;;;;;;;17.49;28.98;102226.59;5076693;28;20207;-70
2021/04/19 10:56:54;;;;;;;2.33;1.20;;;;;;;17.51;28.71;102227.34;5084393;28;20283;-70
2021/04/19 10:59:23;;;;;;;2.30;1.67;;;;;;;17.44;29.17;102226.03;5082351;28;20278;-70
2021/04/19 11:01:58;;;;;;;1.50;1.17;;;;;;;17.78;29.29;102223.63;5085323;28;20247;-70
2021/04/19 11:04:27;;;;;;;1.53;1.27;;;;;;;17.66;29.67;102218.06;5090284;28;20809;-70
2021/04/19 11:06:56;;;;;;;1.37;1.27;;;;;;;17.58;30.60;102174.28;5085467;28;20601;-70
2021/04/19 11:09:27;;;;;;;3.23;1.40;;;;;;;17.61;31.23;102152.31;5090969;28;20207;-70
2021/04/19 11:11:55;;;;;;;3.03;1.20;;;;;;;18.25;29.84;102207.28;5078461;28;20197;-70
2021/04/19 11:14:24;;;;;;;3.17;1.33;;;;;;;17.95;28.41;102232.22;5086295;28;20672;-70
2021/04/19 11:16:57;;;;;;;3.20;1.37;;;;;;;17.86;28.22;102221.19;5084340;28;20611;-70
2021/04/19 11:19:46;;;;;;;2.07;1.40;;;;;;;17.85;28.72;102209.44;5087495;28;20696;-70
2021/04/19 11:22:23;;;;;;;3.60;1.20;;;;;;;18.02;30.24;102220.88;5077633;28;20245;-70
2021/04/19 11:25:15;;;;;;;4.10;1.10;;;;;;;18.19;29.05;102213.19;5088195;28;20209;-70
2021/04/19 11:27:43;;;;;;;2.83;1.10;;;;;;;17.94;29.27;102225.06;5079870;28;20220;-70
2021/04/19 11:30:23;;;;;;;4.83;1.00;;;;;;;17.69;29.80;102212.41;5080967;28;20275;-73
2021/04/19 11:33:04;;;;;;;2.27;1.13;;;;;;;17.52;30.25;102220.06;5081665;28;20198;-72
2021/04/19 11:35:38;;;;;;;1.73;1.27;;;;;;;17.48;30.55;102214.00;5087203;28;20214;-71
2021/04/19 11:38:06;;;;;;;1.77;1.13;;;;;;;17.47;29.28;102219.53;5086373;28;20208;-69
2021/04/19 11:40:36;;;;;;;4.17;1.10;;;;;;;17.26;29.47;102178.50;5075935;28;20608;-70
2021/04/19 11:43:31;;;;;;;2.57;1.13;;;;;;;17.44;29.40;102226.03;5079664;28;20225;-71
2021/04/19 11:46:01;;;;;;;3.63;1.40;;;;;;;17.05;30.73;102154.66;5057712;28;20218;-71
2021/04/19 11:48:30;;;;;;;2.80;1.40;;;;;;;17.54;29.83;102210.81;5075162;28;20647;-71
2021/04/19 11:50:59;;;;;;;1.10;1.00;;;;;;;17.20;30.14;102195.25;5083692;28;20563;-72